sensor_id;sensor_type;location;lat;lon;timestamp;pressure;altitude;pressure_sealevel;temperature;humidity
3796;BME280;1913;50.660;7.834;2023-04-26T00:02:22;97309.19;;;1.33;100.00
3796;BME280;1913;50.660;7.834;2023-04-26T00:04:51;97319.38;;;1.44;100.00
3796;BME280;1913;50.660;7.834;2023-04-26T00:07:23;97321.59;;;1.30;100.00
3796;BME280;1913;50.660;7.834;2023-04-26T00:09:50;97320.09;;;1.37;100.00
3796;BME280;1913;50.660;7.834;2023-04-26T00:12:17;97325.41;;;1.35;100.00
3796;BME280;1913;50.660;7.834;2023-04-26T00:14:43;97322.84;;;1.26;100.00
3796;BME280;1913;50.660;7.834;2023-04-26T00:17:09;97322.69;;;1.27;100.00
3796;BME280;1913;50.660;7.834;2023-04-26T00:19:34;97330.91;;;1.23;100.00
3796;BME280;1913;50.660;7.834;2023-04-26T00:22:00;97324.13;;;1.02;100.00
3796;BME280;1913;50.660;7.834;2023-04-26T00:24:25;97325.34;;;0.98;100.00
3796;BME280;1913;50.660;7.834;2023-04-26T00:26:54;97328.63;;;1.00;100.00
3796;BME280;1913;50.660;7.834;2023-04-26T00:29:20;97324.53;;;0.88;100.00
3796;BME280;1913;50.660;7.834;2023-04-26T00:31:45;97321.03;;;0.69;100.00
3796;BME280;1913;50.660;7.834;2023-04-26T00:34:11;97325.94;;;0.73;100.00
3796;BME280;1913;50.660;7.834;2023-04-26T00:36:36;97330.56;;;0.69;100.00
3796;BME280;1913;50.660;7.834;2023-04-26T00:39:02;97329.91;;;0.57;100.00
3796;BME280;1913;50.660;7.834;2023-04-26T00:41:27;97323.34;;;0.43;100.00
3796;BME280;1913;50.660;7.834;2023-04-26T00:43:52;97324.84;;;0.27;100.00
3796;BME280;1913;50.660;7.834;2023-04-26T00:46:19;97327.00;;;0.31;100.00
3796;BME280;1913;50.660;7.834;2023-04-26T00:48:46;97324.97;;;0.15;100.00
3796;BME280;1913;50.660;7.834;2023-04-26T00:51:12;97327.28;;;0.18;100.00
3796;BME280;1913;50.660;7.834;2023-04-26T00:53:38;97329.28;;;0.05;100.00
3796;BME280;1913;50.660;7.834;2023-04-26T00:56:05;97317.44;;;0.03;100.00
3796;BME280;1913;50.660;7.834;2023-04-26T00:58:31;97323.81;;;-0.02;100.00
3796;BME280;1913;50.660;7.834;2023-04-26T01:00:57;97322.19;;;-0.03;100.00
3796;BME280;1913;50.660;7.834;2023-04-26T01:03:23;97320.53;;;-0.04;100.00
3796;BME280;1913;50.660;7.834;2023-04-26T01:05:49;97316.47;;;-0.06;100.00
3796;BME280;1913;50.660;7.834;2023-04-26T01:08:14;97316.59;;;-0.17;100.00
3796;BME280;1913;50.660;7.834;2023-04-26T01:10:45;97318.88;;;-0.24;100.00
3796;BME280;1913;50.660;7.834;2023-04-26T01:13:12;97312.88;;;-0.34;100.00
3796;BME280;1913;50.660;7.834;2023-04-26T01:15:43;97312.56;;;-0.41;100.00
3796;BME280;1913;50.660;7.834;2023-04-26T01:18:09;97312.16;;;-0.36;100.00
3796;BME280;1913;50.660;7.834;2023-04-26T01:20:35;97321.28;;;-0.42;100.00
3796;BME280;1913;50.660;7.834;2023-04-26T01:23:01;97316.06;;;-0.52;100.00
3796;BME280;1913;50.660;7.834;2023-04-26T01:25:26;97318.13;;;-0.45;100.00
3796;BME280;1913;50.660;7.834;2023-04-26T01:27:52;97315.34;;;-0.54;100.00
3796;BME280;1913;50.660;7.834;2023-04-26T01:30:17;97314.25;;;-0.61;100.00
3796;BME280;1913;50.660;7.834;2023-04-26T01:32:43;97318.59;;;-0.61;100.00
3796;BME280;1913;50.660;7.834;2023-04-26T01:35:08;97318.19;;;-0.66;100.00
3796;BME280;1913;50.660;7.834;2023-04-26T01:37:34;97319.69;;;-0.64;100.00
3796;BME280;1913;50.660;7.834;2023-04-26T01:40:00;97315.03;;;-0.70;100.00
3796;BME280;1913;50.660;7.834;2023-04-26T01:42:25;97312.56;;;-0.72;100.00
3796;BME280;1913;50.660;7.834;2023-04-26T01:44:51;97319.00;;;-0.87;100.00
3796;BME280;1913;50.660;7.834;2023-04-26T01:47:16;97308.78;;;-0.98;100.00
3796;BME280;1913;50.660;7.834;2023-04-26T01:49:41;97308.47;;;-1.05;100.00
3796;BME280;1913;50.660;7.834;2023-04-26T01:52:07;97312.63;;;-0.92;100.00
3796;BME280;1913;50.660;7.834;2023-04-26T01:54:32;97310.59;;;-0.89;100.00
3796;BME280;1913;50.660;7.834;2023-04-26T01:56:58;97310.22;;;-0.84;100.00
3796;BME280;1913;50.660;7.834;2023-04-26T01:59:23;97309.84;;;-1.01;100.00
3796;BME280;1913;50.660;7.834;2023-04-26T02:01:48;97312.97;;;-0.97;100.00
3796;BME280;1913;50.660;7.834;2023-04-26T02:04:14;97318.34;;;-1.10;100.00
3796;BME280;1913;50.660;7.834;2023-04-26T02:06:40;97313.88;;;-1.08;100.00
3796;BME280;1913;50.660;7.834;2023-04-26T02:09:07;97318.06;;;-1.07;100.00
3796;BME280;1913;50.660;7.834;2023-04-26T02:11:34;97317.66;;;-1.12;100.00
3796;BME280;1913;50.660;7.834;2023-04-26T02:13:59;97313.19;;;-1.10;100.00
3796;BME280;1913;50.660;7.834;2023-04-26T02:16:25;97309.34;;;-1.15;100.00
3796;BME280;1913;50.660;7.834;2023-04-26T02:18:51;97305.00;;;-1.15;100.00
3796;BME280;1913;50.660;7.834;2023-04-26T02:21:17;97306.38;;;-1.11;100.00
3796;BME280;1913;50.660;7.834;2023-04-26T02:23:44;97307.16;;;-1.20;100.00
3796;BME280;1913;50.660;7.834;2023-04-26T02:26:09;97312.72;;;-1.15;100.00
3796;BME280;1913;50.660;7.834;2023-04-26T02:28:37;97312.16;;;-1.18;100.00
3796;BME280;1913;50.660;7.834;2023-04-26T02:31:02;97305.25;;;-1.18;100.00
3796;BME280;1913;50.660;7.834;2023-04-26T02:33:28;97307.50;;;-1.25;100.00
3796;BME280;1913;50.660;7.834;2023-04-26T02:35:53;97302.50;;;-1.26;100.00
3796;BME280;1913;50.660;7.834;2023-04-26T02:38:18;97306.69;;;-1.25;100.00
3796;BME280;1913;50.660;7.834;2023-04-26T02:40:44;97311.28;;;-1.29;100.00
3796;BME280;1913;50.660;7.834;2023-04-26T02:43:10;97315.38;;;-1.26;100.00
3796;BME280;1913;50.660;7.834;2023-04-26T02:45:42;97312.06;;;-1.17;100.00
3796;BME280;1913;50.660;7.834;2023-04-26T02:48:07;97309.56;;;-1.39;100.00
3796;BME280;1913;50.660;7.834;2023-04-26T02:50:33;97308.28;;;-1.34;100.00
3796;BME280;1913;50.660;7.834;2023-04-26T02:52:58;97306.19;;;-1.40;100.00
3796;BME280;1913;50.660;7.834;2023-04-26T02:55:24;97297.50;;;-1.39;100.00
3796;BME280;1913;50.660;7.834;2023-04-26T02:57:50;97303.03;;;-1.43;100.00
3796;BME280;1913;50.660;7.834;2023-04-26T03:00:15;97301.59;;;-1.36;100.00
3796;BME280;1913;50.660;7.834;2023-04-26T03:02:41;97297.81;;;-1.32;100.00
3796;BME280;1913;50.660;7.834;2023-04-26T03:05:07;97302.88;;;-1.31;100.00
3796;BME280;1913;50.660;7.834;2023-04-26T03:07:33;97302.16;;;-1.33;100.00
3796;BME280;1913;50.660;7.834;2023-04-26T03:09:59;97295.25;;;-1.32;100.00
3796;BME280;1913;50.660;7.834;2023-04-26T03:12:25;97298.59;;;-1.41;100.00
3796;BME280;1913;50.660;7.834;2023-04-26T03:14:50;97300.53;;;-1.34;100.00
3796;BME280;1913;50.660;7.834;2023-04-26T03:17:15;97305.19;;;-1.49;100.00
3796;BME280;1913;50.660;7.834;2023-04-26T03:19:41;97299.09;;;-1.48;100.00
3796;BME280;1913;50.660;7.834;2023-04-26T03:22:06;97298.13;;;-1.47;100.00
3796;BME280;1913;50.660;7.834;2023-04-26T03:24:32;97304.03;;;-1.56;100.00
3796;BME280;1913;50.660;7.834;2023-04-26T03:26:57;97299.72;;;-1.55;100.00
3796;BME280;1913;50.660;7.834;2023-04-26T03:29:24;97283.91;;;-1.62;100.00
3796;BME280;1913;50.660;7.834;2023-04-26T03:31:49;97294.94;;;-1.71;100.00
3796;BME280;1913;50.660;7.834;2023-04-26T03:34:15;97288.50;;;-1.65;100.00
3796;BME280;1913;50.660;7.834;2023-04-26T03:36:41;97288.88;;;-1.70;100.00
3796;BME280;1913;50.660;7.834;2023-04-26T03:39:06;97289.22;;;-1.63;100.00
3796;BME280;1913;50.660;7.834;2023-04-26T03:41:32;97298.38;;;-1.71;100.00
3796;BME280;1913;50.660;7.834;2023-04-26T03:43:57;97291.94;;;-1.76;100.00
3796;BME280;1913;50.660;7.834;2023-04-26T03:46:23;97293.00;;;-1.79;100.00
3796;BME280;1913;50.660;7.834;2023-04-26T03:48:48;97293.47;;;-1.74;100.00
3796;BME280;1913;50.660;7.834;2023-04-26T03:51:14;97288.00;;;-1.59;100.00
3796;BME280;1913;50.660;7.834;2023-04-26T03:53:39;97282.97;;;-1.61;100.00
3796;BME280;1913;50.660;7.834;2023-04-26T03:56:05;97291.06;;;-1.65;100.00
3796;BME280;1913;50.660;7.834;2023-04-26T03:58:32;97287.13;;;-1.70;100.00
3796;BME280;1913;50.660;7.834;2023-04-26T04:00:57;97286.63;;;-1.63;100.00
3796;BME280;1913;50.660;7.834;2023-04-26T04:03:22;97279.16;;;-1.66;100.00
3796;BME280;1913;50.660;7.834;2023-04-26T04:05:48;97284.28;;;-1.66;100.00
3796;BME280;1913;50.660;7.834;2023-04-26T04:08:13;97286.31;;;-1.70;100.00
3796;BME280;1913;50.660;7.834;2023-04-26T04:10:40;97280.94;;;-1.78;100.00
3796;BME280;1913;50.660;7.834;2023-04-26T04:13:07;97278.91;;;-1.75;100.00
3796;BME280;1913;50.660;7.834;2023-04-26T04:15:32;97284.44;;;-1.79;100.00
3796;BME280;1913;50.660;7.834;2023-04-26T04:17:58;97283.72;;;-1.70;100.00
3796;BME280;1913;50.660;7.834;2023-04-26T04:20:23;97282.59;;;-1.77;100.00
3796;BME280;1913;50.660;7.834;2023-04-26T04:22:49;97291.06;;;-1.65;100.00
3796;BME280;1913;50.660;7.834;2023-04-26T04:25:15;97290.84;;;-1.62;100.00
3796;BME280;1913;50.660;7.834;2023-04-26T04:27:41;97294.22;;;-1.62;100.00
3796;BME280;1913;50.660;7.834;2023-04-26T04:30:08;97301.94;;;-1.62;100.00
3796;BME280;1913;50.660;7.834;2023-04-26T04:32:36;97298.94;;;-1.67;100.00
3796;BME280;1913;50.660;7.834;2023-04-26T04:35:04;97305.09;;;-1.58;100.00
3796;BME280;1913;50.660;7.834;2023-04-26T04:37:29;97305.25;;;-1.60;100.00
3796;BME280;1913;50.660;7.834;2023-04-26T04:39:58;97305.53;;;-1.53;100.00
3796;BME280;1913;50.660;7.834;2023-04-26T04:42:23;97305.69;;;-1.55;100.00
3796;BME280;1913;50.660;7.834;2023-04-26T04:44:51;97311.78;;;-1.56;100.00
3796;BME280;1913;50.660;7.834;2023-04-26T04:47:16;97311.03;;;-1.47;100.00
3796;BME280;1913;50.660;7.834;2023-04-26T04:49:42;97319.66;;;-1.36;100.00
3796;BME280;1913;50.660;7.834;2023-04-26T04:52:07;97319.16;;;-1.30;100.00
3796;BME280;1913;50.660;7.834;2023-04-26T04:54:33;97322.09;;;-1.14;100.00
3796;BME280;1913;50.660;7.834;2023-04-26T04:56:58;97325.69;;;-0.84;100.00
3796;BME280;1913;50.660;7.834;2023-04-26T04:59:24;97322.03;;;-0.51;100.00
3796;BME280;1913;50.660;7.834;2023-04-26T05:01:49;97323.81;;;-0.02;100.00
3796;BME280;1913;50.660;7.834;2023-04-26T05:04:15;97320.75;;;0.14;100.00
3796;BME280;1913;50.660;7.834;2023-04-26T05:06:41;97337.22;;;0.42;100.00
3796;BME280;1913;50.660;7.834;2023-04-26T05:09:07;97333.28;;;0.97;100.00
3796;BME280;1913;50.660;7.834;2023-04-26T05:11:32;97326.09;;;1.28;100.00
3796;BME280;1913;50.660;7.834;2023-04-26T05:13:58;97334.25;;;1.42;100.00
3796;BME280;1913;50.660;7.834;2023-04-26T05:16:24;97337.06;;;1.86;100.00
3796;BME280;1913;50.660;7.834;2023-04-26T05:18:49;97331.69;;;2.43;100.00
3796;BME280;1913;50.660;7.834;2023-04-26T05:21:14;97331.41;;;2.46;100.00
3796;BME280;1913;50.660;7.834;2023-04-26T05:23:40;97332.84;;;2.84;100.00
3796;BME280;1913;50.660;7.834;2023-04-26T05:26:06;97345.22;;;3.34;100.00
3796;BME280;1913;50.660;7.834;2023-04-26T05:28:32;97344.41;;;3.60;100.00
3796;BME280;1913;50.660;7.834;2023-04-26T05:30:58;97351.56;;;4.00;100.00
3796;BME280;1913;50.660;7.834;2023-04-26T05:33:25;97356.91;;;4.49;100.00
3796;BME280;1913;50.660;7.834;2023-04-26T05:35:52;97367.38;;;4.90;100.00
3796;BME280;1913;50.660;7.834;2023-04-26T05:38:18;97363.13;;;5.38;100.00
3796;BME280;1913;50.660;7.834;2023-04-26T05:40:44;97357.22;;;5.61;100.00
3796;BME280;1913;50.660;7.834;2023-04-26T05:43:09;97366.66;;;5.70;100.00
3796;BME280;1913;50.660;7.834;2023-04-26T05:45:34;97363.25;;;6.17;100.00
3796;BME280;1913;50.660;7.834;2023-04-26T05:48:00;97363.97;;;6.03;100.00
3796;BME280;1913;50.660;7.834;2023-04-26T05:50:25;97353.03;;;6.38;100.00
3796;BME280;1913;50.660;7.834;2023-04-26T05:52:51;97362.13;;;6.74;100.00
3796;BME280;1913;50.660;7.834;2023-04-26T05:55:17;97366.09;;;7.30;100.00
3796;BME280;1913;50.660;7.834;2023-04-26T05:57:44;97374.81;;;7.23;100.00
3796;BME280;1913;50.660;7.834;2023-04-26T06:00:10;97377.34;;;7.83;100.00
3796;BME280;1913;50.660;7.834;2023-04-26T06:02:36;97378.13;;;8.28;100.00
3796;BME280;1913;50.660;7.834;2023-04-26T06:05:02;97372.25;;;8.41;100.00
3796;BME280;1913;50.660;7.834;2023-04-26T06:07:29;97388.59;;;8.79;100.00
3796;BME280;1913;50.660;7.834;2023-04-26T06:09:54;97384.78;;;9.03;100.00
3796;BME280;1913;50.660;7.834;2023-04-26T06:12:20;97383.00;;;9.04;100.00
3796;BME280;1913;50.660;7.834;2023-04-26T06:14:46;97388.94;;;8.55;94.97
3796;BME280;1913;50.660;7.834;2023-04-26T06:17:11;97388.00;;;8.11;89.22
3796;BME280;1913;50.660;7.834;2023-04-26T06:19:36;97386.28;;;8.19;93.69
3796;BME280;1913;50.660;7.834;2023-04-26T06:22:02;97389.13;;;8.53;96.00
3796;BME280;1913;50.660;7.834;2023-04-26T06:24:27;97387.94;;;8.56;95.44
3796;BME280;1913;50.660;7.834;2023-04-26T06:26:52;97379.44;;;8.69;97.13
3796;BME280;1913;50.660;7.834;2023-04-26T06:29:20;97391.41;;;8.78;96.84
3796;BME280;1913;50.660;7.834;2023-04-26T06:31:45;97379.84;;;8.51;96.25
3796;BME280;1913;50.660;7.834;2023-04-26T06:34:11;97385.25;;;8.49;98.99
3796;BME280;1913;50.660;7.834;2023-04-26T06:36:36;97380.84;;;8.05;93.48
3796;BME280;1913;50.660;7.834;2023-04-26T06:39:01;97380.22;;;7.88;94.17
3796;BME280;1913;50.660;7.834;2023-04-26T06:41:27;97387.06;;;7.60;93.79
3796;BME280;1913;50.660;7.834;2023-04-26T06:43:52;97386.63;;;8.15;98.99
3796;BME280;1913;50.660;7.834;2023-04-26T06:46:18;97394.31;;;8.47;97.44
3796;BME280;1913;50.660;7.834;2023-04-26T06:48:43;97393.06;;;8.64;100.00
3796;BME280;1913;50.660;7.834;2023-04-26T06:51:09;97399.53;;;8.83;92.07
3796;BME280;1913;50.660;7.834;2023-04-26T06:53:35;97398.31;;;8.85;91.92
3796;BME280;1913;50.660;7.834;2023-04-26T06:56:01;97402.31;;;8.81;87.32
3796;BME280;1913;50.660;7.834;2023-04-26T06:58:27;97409.44;;;8.36;85.27
3796;BME280;1913;50.660;7.834;2023-04-26T07:00:52;97408.81;;;8.34;93.02
3796;BME280;1913;50.660;7.834;2023-04-26T07:03:17;97416.09;;;8.69;94.34
3796;BME280;1913;50.660;7.834;2023-04-26T07:05:43;97403.22;;;8.23;93.34
3796;BME280;1913;50.660;7.834;2023-04-26T07:08:08;97415.69;;;8.21;85.79
3796;BME280;1913;50.660;7.834;2023-04-26T07:10:34;97413.88;;;8.87;87.59
3796;BME280;1913;50.660;7.834;2023-04-26T07:12:59;97406.81;;;9.30;90.89
3796;BME280;1913;50.660;7.834;2023-04-26T07:15:25;97410.09;;;8.90;91.75
3796;BME280;1913;50.660;7.834;2023-04-26T07:17:50;97408.56;;;8.80;84.90
3796;BME280;1913;50.660;7.834;2023-04-26T07:20:16;97413.38;;;9.20;93.31
3796;BME280;1913;50.660;7.834;2023-04-26T07:22:45;97410.19;;;9.74;93.29
3796;BME280;1913;50.660;7.834;2023-04-26T07:25:10;97402.72;;;9.43;83.50
3796;BME280;1913;50.660;7.834;2023-04-26T07:27:36;97402.25;;;9.61;78.87
3796;BME280;1913;50.660;7.834;2023-04-26T07:30:01;97405.41;;;9.56;87.39
3796;BME280;1913;50.660;7.834;2023-04-26T07:32:27;97399.94;;;9.51;85.79
3796;BME280;1913;50.660;7.834;2023-04-26T07:34:53;97403.16;;;9.81;84.95
3796;BME280;1913;50.660;7.834;2023-04-26T07:37:18;97403.47;;;9.65;84.79
3796;BME280;1913;50.660;7.834;2023-04-26T07:39:44;97397.47;;;9.21;74.50
3796;BME280;1913;50.660;7.834;2023-04-26T07:42:09;97402.16;;;8.83;86.32
3796;BME280;1913;50.660;7.834;2023-04-26T07:44:34;97401.81;;;9.14;85.52
3796;BME280;1913;50.660;7.834;2023-04-26T07:47:00;97397.69;;;9.76;82.88
3796;BME280;1913;50.660;7.834;2023-04-26T07:49:25;97406.25;;;9.91;71.41
3796;BME280;1913;50.660;7.834;2023-04-26T07:51:51;97407.75;;;8.80;78.89
3796;BME280;1913;50.660;7.834;2023-04-26T07:54:16;97401.88;;;8.27;86.88
3796;BME280;1913;50.660;7.834;2023-04-26T07:56:42;97399.31;;;7.44;91.84
3796;BME280;1913;50.660;7.834;2023-04-26T07:59:07;97400.06;;;7.30;97.58
3796;BME280;1913;50.660;7.834;2023-04-26T08:01:33;97402.16;;;7.73;100.00
3796;BME280;1913;50.660;7.834;2023-04-26T08:03:58;97403.59;;;7.90;96.34
3796;BME280;1913;50.660;7.834;2023-04-26T08:06:24;97402.69;;;7.83;92.93
3796;BME280;1913;50.660;7.834;2023-04-26T08:08:49;97411.63;;;8.03;91.81
3796;BME280;1913;50.660;7.834;2023-04-26T08:11:17;97412.69;;;8.53;87.71
3796;BME280;1913;50.660;7.834;2023-04-26T08:13:42;97418.56;;;8.92;84.06
3796;BME280;1913;50.660;7.834;2023-04-26T08:16:10;97414.69;;;8.87;83.21
3796;BME280;1913;50.660;7.834;2023-04-26T08:18:36;97410.53;;;8.93;78.88
3796;BME280;1913;50.660;7.834;2023-04-26T08:21:02;97403.63;;;8.92;80.85
3796;BME280;1913;50.660;7.834;2023-04-26T08:23:28;97403.59;;;9.84;82.51
3796;BME280;1913;50.660;7.834;2023-04-26T08:25:56;97408.78;;;10.06;70.05
3796;BME280;1913;50.660;7.834;2023-04-26T08:28:22;97400.50;;;10.44;64.36
3796;BME280;1913;50.660;7.834;2023-04-26T08:30:47;97406.75;;;11.04;67.47
3796;BME280;1913;50.660;7.834;2023-04-26T08:33:13;97400.34;;;11.60;63.24
3796;BME280;1913;50.660;7.834;2023-04-26T08:35:38;97396.06;;;11.92;53.78
3796;BME280;1913;50.660;7.834;2023-04-26T08:38:03;97406.59;;;11.25;51.75
3796;BME280;1913;50.660;7.834;2023-04-26T08:40:29;97402.53;;;11.63;50.00
3796;BME280;1913;50.660;7.834;2023-04-26T08:42:54;97399.72;;;11.24;51.28
3796;BME280;1913;50.660;7.834;2023-04-26T08:45:20;97405.78;;;11.51;49.09
3796;BME280;1913;50.660;7.834;2023-04-26T08:47:52;97398.47;;;11.27;46.77
3796;BME280;1913;50.660;7.834;2023-04-26T08:50:22;97404.78;;;11.33;46.82
3796;BME280;1913;50.660;7.834;2023-04-26T08:52:49;97400.72;;;11.43;47.71
3796;BME280;1913;50.660;7.834;2023-04-26T08:55:16;97394.22;;;11.72;47.83
3796;BME280;1913;50.660;7.834;2023-04-26T08:57:44;97404.56;;;11.21;45.61
3796;BME280;1913;50.660;7.834;2023-04-26T09:00:11;97400.81;;;10.69;47.24
3796;BME280;1913;50.660;7.834;2023-04-26T09:02:41;97399.56;;;10.58;48.30
3796;BME280;1913;50.660;7.834;2023-04-26T09:05:08;97400.41;;;10.72;49.43
3796;BME280;1913;50.660;7.834;2023-04-26T09:07:42;97404.03;;;10.64;49.98
3796;BME280;1913;50.660;7.834;2023-04-26T09:10:12;97401.88;;;10.33;48.52
3796;BME280;1913;50.660;7.834;2023-04-26T09:12:39;97404.47;;;10.74;49.49
3796;BME280;1913;50.660;7.834;2023-04-26T09:15:05;97401.47;;;10.29;52.17
3796;BME280;1913;50.660;7.834;2023-04-26T09:17:38;97408.00;;;10.12;53.34
3796;BME280;1913;50.660;7.834;2023-04-26T09:20:18;97401.38;;;9.32;52.08
3796;BME280;1913;50.660;7.834;2023-04-26T09:22:43;97402.56;;;8.65;56.67
3796;BME280;1913;50.660;7.834;2023-04-26T09:25:11;97402.53;;;8.80;58.29
3796;BME280;1913;50.660;7.834;2023-04-26T09:27:39;97404.50;;;9.21;56.94
3796;BME280;1913;50.660;7.834;2023-04-26T09:30:07;97396.72;;;8.48;55.73
3796;BME280;1913;50.660;7.834;2023-04-26T09:35:31;97394.00;;;9.98;55.79
3796;BME280;1913;50.660;7.834;2023-04-26T09:40:26;97395.09;;;10.59;49.19
3796;BME280;1913;50.660;7.834;2023-04-26T09:42:57;97392.22;;;11.81;50.00
3796;BME280;1913;50.660;7.834;2023-04-26T09:45:23;97392.19;;;12.08;47.06
3796;BME280;1913;50.660;7.834;2023-04-26T09:47:50;61283.88;;;-145.51;100.00
3796;BME280;1913;50.660;7.834;2023-04-26T09:50:29;97397.78;;;12.31;45.76
3796;BME280;1913;50.660;7.834;2023-04-26T09:52:55;97393.19;;;13.03;46.79
3796;BME280;1913;50.660;7.834;2023-04-26T09:55:28;61283.88;;;-145.51;100.00
3796;BME280;1913;50.660;7.834;2023-04-26T09:57:57;97392.09;;;14.29;42.23
3796;BME280;1913;50.660;7.834;2023-04-26T10:00:28;97393.06;;;14.17;41.16
3796;BME280;1913;50.660;7.834;2023-04-26T10:02:54;97379.53;;;14.43;40.10
3796;BME280;1913;50.660;7.834;2023-04-26T10:05:21;97383.66;;;13.84;37.95
3796;BME280;1913;50.660;7.834;2023-04-26T10:07:48;97386.84;;;13.43;40.33
3796;BME280;1913;50.660;7.834;2023-04-26T10:10:14;97381.84;;;13.59;42.22
3796;BME280;1913;50.660;7.834;2023-04-26T10:12:40;97382.03;;;14.38;42.05
3796;BME280;1913;50.660;7.834;2023-04-26T10:15:10;97371.16;;;15.60;39.10
3796;BME280;1913;50.660;7.834;2023-04-26T10:17:37;97367.56;;;15.43;36.31
3796;BME280;1913;50.660;7.834;2023-04-26T10:20:05;97371.03;;;15.43;38.83
3796;BME280;1913;50.660;7.834;2023-04-26T10:22:42;97369.00;;;15.03;38.61
3796;BME280;1913;50.660;7.834;2023-04-26T10:25:09;97371.13;;;13.73;40.73
3796;BME280;1913;50.660;7.834;2023-04-26T10:30:12;97368.44;;;12.98;42.25
3796;BME280;1913;50.660;7.834;2023-04-26T10:35:29;97366.00;;;13.34;42.40
3796;BME280;1913;50.660;7.834;2023-04-26T10:40:37;97366.34;;;14.06;37.94
3796;BME280;1913;50.660;7.834;2023-04-26T10:45:36;97362.09;;;13.37;39.69
3796;BME280;1913;50.660;7.834;2023-04-26T10:48:18;97361.47;;;13.41;41.22
3796;BME280;1913;50.660;7.834;2023-04-26T10:55:59;97356.97;;;12.47;38.67
3796;BME280;1913;50.660;7.834;2023-04-26T10:58:26;97361.47;;;12.40;40.95
3796;BME280;1913;50.660;7.834;2023-04-26T11:01:14;97357.75;;;12.03;42.20
3796;BME280;1913;50.660;7.834;2023-04-26T11:06:22;97354.53;;;13.65;42.37
3796;BME280;1913;50.660;7.834;2023-04-26T11:08:49;97350.28;;;14.87;39.17
3796;BME280;1913;50.660;7.834;2023-04-26T11:11:15;97356.44;;;16.40;38.38
3796;BME280;1913;50.660;7.834;2023-04-26T11:13:42;97351.06;;;17.37;37.06
3796;BME280;1913;50.660;7.834;2023-04-26T11:16:09;97342.06;;;18.60;34.00
3796;BME280;1913;50.660;7.834;2023-04-26T11:18:37;97346.53;;;18.76;30.37
3796;BME280;1913;50.660;7.834;2023-04-26T11:21:04;97352.56;;;18.23;31.75
3796;BME280;1913;50.660;7.834;2023-04-26T11:23:30;97353.31;;;18.18;30.49
3796;BME280;1913;50.660;7.834;2023-04-26T11:26:00;97348.97;;;18.12;33.05
3796;BME280;1913;50.660;7.834;2023-04-26T11:28:33;97346.50;;;18.05;31.69
3796;BME280;1913;50.660;7.834;2023-04-26T11:30:59;97345.06;;;17.98;31.09
3796;BME280;1913;50.660;7.834;2023-04-26T11:33:25;97337.91;;;17.81;34.05
3796;BME280;1913;50.660;7.834;2023-04-26T11:35:57;61283.88;;;-145.51;100.00
3796;BME280;1913;50.660;7.834;2023-04-26T11:38:23;97332.25;;;18.38;28.42
3796;BME280;1913;50.660;7.834;2023-04-26T11:40:55;73748.66;;;-145.51;100.00
3796;BME280;1913;50.660;7.834;2023-04-26T11:43:21;97332.25;;;18.38;28.42
3796;BME280;1913;50.660;7.834;2023-04-26T11:45:48;97341.28;;;16.23;30.60
3796;BME280;1913;50.660;7.834;2023-04-26T11:48:13;97341.44;;;16.86;28.33
3796;BME280;1913;50.660;7.834;2023-04-26T11:50:40;97334.25;;;16.58;30.72
3796;BME280;1913;50.660;7.834;2023-04-26T11:53:07;97339.19;;;16.94;30.31
3796;BME280;1913;50.660;7.834;2023-04-26T11:55:33;97339.75;;;16.96;32.72
3796;BME280;1913;50.660;7.834;2023-04-26T11:58:01;97339.22;;;17.79;32.52
3796;BME280;1913;50.660;7.834;2023-04-26T12:00:33;97332.28;;;17.78;31.55
3796;BME280;1913;50.660;7.834;2023-04-26T12:03:04;97329.56;;;18.33;31.70
3796;BME280;1913;50.660;7.834;2023-04-26T12:05:30;97339.28;;;16.83;29.66
3796;BME280;1913;50.660;7.834;2023-04-26T12:07:57;97337.94;;;16.97;30.97
3796;BME280;1913;50.660;7.834;2023-04-26T12:10:26;97343.53;;;15.44;32.86
3796;BME280;1913;50.660;7.834;2023-04-26T12:12:55;97328.06;;;15.65;33.27
3796;BME280;1913;50.660;7.834;2023-04-26T12:15:24;97337.94;;;16.28;33.88
3796;BME280;1913;50.660;7.834;2023-04-26T12:20:35;97333.00;;;15.26;31.96
3796;BME280;1913;50.660;7.834;2023-04-26T12:23:05;97330.50;;;14.77;32.86
3796;BME280;1913;50.660;7.834;2023-04-26T12:25:33;97326.19;;;14.65;34.72
3796;BME280;1913;50.660;7.834;2023-04-26T12:27:59;97324.34;;;15.07;33.11
3796;BME280;1913;50.660;7.834;2023-04-26T12:30:26;97321.50;;;16.43;36.61
3796;BME280;1913;50.660;7.834;2023-04-26T12:32:52;97322.81;;;17.48;33.86
3796;BME280;1913;50.660;7.834;2023-04-26T12:35:18;97324.88;;;17.46;31.31
3796;BME280;1913;50.660;7.834;2023-04-26T12:37:43;97326.34;;;17.37;31.11
3796;BME280;1913;50.660;7.834;2023-04-26T12:40:10;97330.03;;;17.53;30.82
3796;BME280;1913;50.660;7.834;2023-04-26T12:42:36;97330.03;;;17.86;30.04
3796;BME280;1913;50.660;7.834;2023-04-26T12:45:01;97326.56;;;17.52;30.95
3796;BME280;1913;50.660;7.834;2023-04-26T12:47:27;97325.13;;;17.78;29.62
3796;BME280;1913;50.660;7.834;2023-04-26T12:49:52;97322.19;;;18.40;29.25
3796;BME280;1913;50.660;7.834;2023-04-26T12:52:17;97323.84;;;18.25;27.87
3796;BME280;1913;50.660;7.834;2023-04-26T12:54:43;97316.09;;;17.62;29.56
3796;BME280;1913;50.660;7.834;2023-04-26T12:57:09;97329.22;;;17.86;29.14
3796;BME280;1913;50.660;7.834;2023-04-26T12:59:35;97324.22;;;17.89;27.77
3796;BME280;1913;50.660;7.834;2023-04-26T13:02:00;97320.13;;;15.65;31.29
3796;BME280;1913;50.660;7.834;2023-04-26T13:04:27;97323.78;;;15.05;31.02
3796;BME280;1913;50.660;7.834;2023-04-26T13:06:53;97321.88;;;15.59;33.83
3796;BME280;1913;50.660;7.834;2023-04-26T13:09:19;97325.53;;;16.05;32.48
3796;BME280;1913;50.660;7.834;2023-04-26T13:11:44;97327.78;;;16.37;31.36
3796;BME280;1913;50.660;7.834;2023-04-26T13:14:09;97323.47;;;15.13;33.13
3796;BME280;1913;50.660;7.834;2023-04-26T13:16:35;97330.94;;;15.16;33.96
3796;BME280;1913;50.660;7.834;2023-04-26T13:19:00;97325.81;;;15.68;32.52
3796;BME280;1913;50.660;7.834;2023-04-26T13:21:26;97323.78;;;16.11;31.83
3796;BME280;1913;50.660;7.834;2023-04-26T13:23:51;97320.28;;;15.70;31.99
3796;BME280;1913;50.660;7.834;2023-04-26T13:26:17;97314.81;;;15.06;33.30
3796;BME280;1913;50.660;7.834;2023-04-26T13:28:43;97308.09;;;14.92;33.81
3796;BME280;1913;50.660;7.834;2023-04-26T13:31:08;97317.91;;;15.03;33.14
3796;BME280;1913;50.660;7.834;2023-04-26T13:33:34;97311.22;;;13.92;34.72
3796;BME280;1913;50.660;7.834;2023-04-26T13:35:59;97317.13;;;14.42;35.00
3796;BME280;1913;50.660;7.834;2023-04-26T13:38:25;97316.38;;;14.53;34.58
3796;BME280;1913;50.660;7.834;2023-04-26T13:40:51;97316.94;;;14.85;35.84
3796;BME280;1913;50.660;7.834;2023-04-26T13:43:16;97316.59;;;14.94;35.10